Time;durP1;ratioP1;P1;durP2;ratioP2;P2;SDS_P1;SDS_P2;PMS_P1;PMS_P2;Temp;Humidity;BMP_temperature;BMP_pressure;BME280_temperature;BME280_humidity;BME280_pressure;Samples;Min_cycle;Max_cycle;Signal;HPM_P1;HPM_P2
2023/03/25 00:02:26;;;;;;;1.85;0.50;;;;;;;8.00;100.00;98194.56;4990139;28;20026;-79
2023/03/25 00:04:53;;;;;;;2.38;0.40;;;;;;;7.95;100.00;98178.16;4977812;28;20023;-79
2023/03/25 00:07:21;;;;;;;1.33;0.35;;;;;;;8.02;100.00;98184.41;4998745;28;20030;-79
2023/03/25 00:09:47;;;;;;;0.68;0.22;;;;;;;8.01;100.00;98179.22;5002737;28;20049;-80
2023/03/25 00:12:15;;;;;;;3.47;0.55;;;;;;;7.93;100.00;98182.91;5009389;28;20026;-80
2023/03/25 00:14:41;;;;;;;2.50;0.40;;;;;;;7.91;100.00;98184.97;5001284;28;20023;-80
2023/03/25 00:17:06;;;;;;;3.78;0.63;;;;;;;7.85;100.00;98167.78;4985552;28;20062;-79
2023/03/25 00:19:34;;;;;;;1.20;0.30;;;;;;;7.79;100.00;98160.50;4983242;28;20049;-79
2023/03/25 00:22:00;;;;;;;5.47;0.47;;;;;;;7.81;100.00;98176.47;4991040;28;20034;-78
2023/03/25 00:24:25;;;;;;;6.38;0.60;;;;;;;7.85;100.00;98180.41;4993643;28;20074;-78
2023/03/25 00:26:53;;;;;;;2.50;0.45;;;;;;;7.84;100.00;98178.75;4993287;28;20061;-77
2023/03/25 00:29:19;;;;;;;5.63;0.40;;;;;;;7.74;100.00;98170.22;4993020;28;20010;-77
2023/03/25 00:31:44;;;;;;;1.55;0.20;;;;;;;7.85;100.00;98172.34;4998341;28;20030;-78
2023/03/25 00:34:13;;;;;;;2.05;0.30;;;;;;;7.84;100.00;98165.28;4999833;28;20030;-78
2023/03/25 00:36:40;;;;;;;2.55;0.43;;;;;;;7.91;100.00;98179.59;4993510;28;20027;-77
2023/03/25 00:39:07;;;;;;;5.40;0.90;;;;;;;7.90;100.00;98177.94;4994847;28;20065;-80
2023/03/25 00:41:34;;;;;;;2.92;0.35;;;;;;;7.98;100.00;98153.53;4985223;28;20041;-79
2023/03/25 00:44:01;;;;;;;4.85;0.40;;;;;;;8.11;100.00;98169.72;4999396;28;20488;-80
2023/03/25 00:46:29;;;;;;;1.20;0.30;;;;;;;8.17;100.00;98164.56;5003322;28;20026;-80
2023/03/25 00:48:55;;;;;;;4.68;0.50;;;;;;;8.27;100.00;98175.78;4987594;28;20667;-79
2023/03/25 00:51:21;;;;;;;2.40;0.20;;;;;;;8.24;100.00;98151.94;4993395;28;20030;-80
2023/03/25 00:53:51;;;;;;;2.42;0.35;;;;;;;8.14;100.00;98130.75;4983566;28;20033;-78
2023/03/25 00:56:17;;;;;;;4.68;0.30;;;;;;;8.30;100.00;98151.94;4993504;28;20026;-79
2023/03/25 00:58:42;;;;;;;5.82;0.50;;;;;;;8.31;100.00;98136.63;4982844;28;20022;-81
2023/03/25 01:01:16;;;;;;;2.22;0.22;;;;;;;8.29;100.00;98138.69;5002281;28;20035;-79
2023/03/25 01:03:43;;;;;;;1.92;0.40;;;;;;;8.31;100.00;98144.69;4980743;28;20506;-80
2023/03/25 01:06:10;;;;;;;0.93;0.22;;;;;;;8.30;100.00;98148.41;4990467;28;20060;-80
2023/03/25 01:08:36;;;;;;;3.80;0.63;;;;;;;8.38;100.00;98144.69;4972366;28;20026;-80
2023/03/25 01:11:02;;;;;;;4.25;0.60;;;;;;;8.36;100.00;98134.13;4978714;28;20036;-80
2023/03/25 01:13:27;;;;;;;2.70;0.75;;;;;;;8.29;100.00;98139.50;4980936;28;20026;-79
2023/03/25 01:15:52;;;;;;;2.35;0.40;;;;;;;8.21;100.00;98131.59;4994732;28;20503;-80
2023/03/25 01:18:18;;;;;;;4.15;0.50;;;;;;;8.30;100.00;98148.41;4975152;28;20487;-79
2023/03/25 01:20:43;;;;;;;5.15;0.65;;;;;;;8.13;100.00;98118.34;4975522;28;20026;-79
2023/03/25 01:23:09;;;;;;;4.55;1.10;;;;;;;8.15;100.00;98145.91;4968674;28;20496;-80
2023/03/25 01:25:35;;;;;;;4.53;0.60;;;;;;;8.08;100.00;98140.50;4980334;28;20476;-80
2023/03/25 01:28:01;;;;;;;3.75;0.55;;;;;;;8.04;100.00;98144.66;4991243;28;20046;-80
2023/03/25 01:30:26;;;;;;;3.75;0.45;;;;;;;7.90;100.00;98134.84;4979079;28;20026;-80
2023/03/25 01:32:52;;;;;;;5.15;0.60;;;;;;;7.95;100.00;98143.16;4978705;28;20066;-80
2023/03/25 01:35:17;;;;;;;2.17;0.80;;;;;;;7.84;100.00;98119.50;4978761;28;20018;-79
2023/03/25 01:37:43;;;;;;;1.92;0.80;;;;;;;7.94;100.00;98119.97;4985337;28;20403;-79
2023/03/25 01:40:15;;;;;;;1.15;0.57;;;;;;;8.06;100.00;98125.56;4979370;28;20049;-79
2023/03/25 01:42:40;;;;;;;1.85;0.40;;;;;;;8.02;100.00;98105.47;4981213;28;20073;-80
2023/03/25 01:45:23;;;;;;;1.85;0.35;;;;;;;7.89;100.00;98095.50;4984081;28;20484;-79
2023/03/25 01:47:54;;;;;;;1.38;0.30;;;;;;;8.00;100.00;98107.53;4995473;28;20034;-79
2023/03/25 01:50:20;;;;;;;2.03;0.30;;;;;;;7.93;100.00;98087.81;4974747;28;20092;-80
2023/03/25 01:52:50;;;;;;;2.80;0.30;;;;;;;8.16;100.00;98126.00;4988167;28;20026;-80
2023/03/25 01:55:19;;;;;;;1.95;0.47;;;;;;;8.13;100.00;98119.16;4978967;28;20085;-80
2023/03/25 01:57:46;;;;;;;2.60;0.55;;;;;;;8.19;100.00;98119.38;4996857;28;20695;-80
2023/03/25 02:00:14;;;;;;;4.68;0.35;;;;;;;8.16;100.00;98112.53;4984779;28;20056;-79
2023/03/25 02:02:41;;;;;;;3.40;0.40;;;;;;;8.11;100.00;98098.84;4979649;28;20121;-79
2023/03/25 02:05:16;;;;;;;1.83;0.35;;;;;;;8.23;100.00;98110.69;4998304;28;20150;-79
2023/03/25 02:07:45;;;;;;;3.10;0.47;;;;;;;8.08;100.00;98086.63;4982378;28;20057;-79
2023/03/25 02:10:11;;;;;;;0.75;0.50;;;;;;;8.17;100.00;98100.72;4986813;28;20022;-79
2023/03/25 02:12:37;;;;;;;4.03;0.32;;;;;;;8.09;100.00;98077.47;4995017;28;20118;-79
2023/03/25 02:15:06;;;;;;;1.35;0.30;;;;;;;8.11;100.00;98082.69;4979340;28;20116;-79
2023/03/25 02:17:59;;;;;;;1.65;0.40;;;;;;;8.07;100.00;98081.44;4993626;28;20041;-79
2023/03/25 02:21:02;;;;;;;3.70;0.50;;;;;;;8.06;100.00;98072.50;4972250;28;20045;-79
2023/03/25 02:24:06;;;;;;;2.75;0.43;;;;;;;8.00;100.00;98070.66;4992532;28;20026;-80
2023/03/25 02:26:48;;;;;;;3.55;0.43;;;;;;;8.00;100.00;98053.66;4977881;28;20026;-79
2023/03/25 02:29:22;;;;;;;3.40;0.60;;;;;;;8.04;100.00;98080.00;4991561;28;20049;-80
2023/03/25 02:31:59;;;;;;;0.95;0.30;;;;;;;8.18;100.00;98109.66;4991067;28;20030;-79
2023/03/25 02:34:30;;;;;;;1.92;0.45;;;;;;;8.09;100.00;98150.22;4977693;28;20492;-79
2023/03/25 02:37:20;;;;;;;4.13;0.43;;;;;;;7.85;100.00;98183.09;4999075;28;20505;-80
2023/03/25 02:39:53;;;;;;;2.22;0.40;;;;;;;7.59;100.00;98184.63;4973109;28;20026;-79
2023/03/25 02:42:48;;;;;;;1.20;0.40;;;;;;;7.28;100.00;98203.91;4992755;28;20030;-79
2023/03/25 02:45:34;;;;;;;2.88;0.28;;;;;;;7.13;100.00;98203.22;4990248;28;20268;-79
2023/03/25 02:48:24;;;;;;;1.70;0.40;;;;;;;6.98;100.00;98222.13;4975069;28;20041;-79
2023/03/25 02:50:54;;;;;;;1.52;0.20;;;;;;;6.84;100.00;98221.19;4981758;28;20157;-79
2023/03/25 02:53:32;;;;;;;3.72;0.30;;;;;;;6.60;100.00;98219.72;4970218;28;20476;-79
2023/03/25 02:56:01;;;;;;;1.40;0.20;;;;;;;6.30;100.00;98198.34;4976338;28;20034;-78
2023/03/25 02:58:28;;;;;;;1.80;0.40;;;;;;;6.19;100.00;98222.19;4977590;28;20468;-79
2023/03/25 03:00:57;;;;;;;2.92;0.17;;;;;;;5.91;100.00;98179.91;4994730;28;20044;-78
2023/03/25 03:03:24;;;;;;;0.57;0.20;;;;;;;5.89;100.00;98182.81;4977947;28;20026;-78
2023/03/25 03:05:51;;;;;;;0.82;0.15;;;;;;;5.83;100.00;98175.47;4993982;28;20034;-79
2023/03/25 03:08:26;;;;;;;2.50;0.20;;;;;;;5.83;100.00;98145.97;4986230;28;20042;-78
2023/03/25 03:11:06;;;;;;;1.65;0.20;;;;;;;5.68;100.00;98134.41;4960213;28;20572;-78
2023/03/25 03:13:35;;;;;;;1.45;0.20;;;;;;;5.68;100.00;98155.88;4976401;28;20037;-78
2023/03/25 03:16:37;;;;;;;0.30;0.20;;;;;;;5.57;100.00;98148.31;4989524;28;20031;-78
2023/03/25 03:19:33;;;;;;;0.63;0.32;;;;;;;5.62;100.00;98162.00;4988485;28;20374;-79
2023/03/25 03:22:35;;;;;;;0.15;0.10;;;;;;;5.53;100.00;98158.63;5006767;28;20030;-80
2023/03/25 03:25:39;;;;;;;0.20;0.17;;;;;;;5.40;100.00;98164.63;5048376;23;20027;-79
2023/03/25 03:28:13;;;;;;;0.75;0.20;;;;;;;5.29;100.00;98159.72;5010681;28;20084;-78
2023/03/25 03:30:41;;;;;;;0.52;0.20;;;;;;;5.36;100.00;98178.59;5011490;28;20032;-79
2023/03/25 03:33:31;;;;;;;2.83;0.17;;;;;;;5.35;100.00;98179.63;5031069;28;20033;-78
2023/03/25 03:36:05;;;;;;;2.35;0.40;;;;;;;5.21;100.00;98170.53;5014095;28;20061;-77
2023/03/25 03:38:37;;;;;;;0.20;0.20;;;;;;;5.09;100.00;98161.31;5018025;28;20018;-76
2023/03/25 03:41:10;;;;;;;0.25;0.15;;;;;;;5.23;100.00;98189.97;5018453;28;20530;-78
2023/03/25 03:43:44;;;;;;;2.38;0.28;;;;;;;5.31;100.00;98202.47;5018845;28;20025;-79
2023/03/25 03:46:16;;;;;;;0.52;0.20;;;;;;;5.27;100.00;98212.72;5036132;28;20052;-78
2023/03/25 03:48:51;;;;;;;0.57;0.15;;;;;;;5.26;100.00;98203.81;5031145;28;20033;-77
2023/03/25 03:51:28;;;;;;;1.15;0.40;;;;;;;5.20;100.00;98193.03;5021410;28;20113;-77
2023/03/25 03:54:16;;;;;;;0.70;0.22;;;;;;;5.25;100.00;98199.50;5008416;28;20685;-77
2023/03/25 03:56:52;;;;;;;0.40;0.23;;;;;;;5.39;100.00;98213.91;5033537;28;20028;-77
2023/03/25 03:59:40;;;;;;;0.35;0.20;;;;;;;5.29;100.00;98210.69;5016115;28;20843;-77
2023/03/25 04:02:42;;;;;;;1.15;0.40;;;;;;;5.32;100.00;98209.47;5004927;28;20033;-77
2023/03/25 04:05:12;;;;;;;1.85;0.40;;;;;;;5.23;100.00;98220.28;5030790;28;20673;-77
2023/03/25 04:07:53;;;;;;;0.60;0.30;;;;;;;5.18;100.00;98216.50;5001525;28;20041;-77
2023/03/25 04:10:38;;;;;;;0.35;0.30;;;;;;;5.10;100.00;98200.50;4996874;28;20053;-78
2023/03/25 04:13:08;;;;;;;3.28;0.30;;;;;;;5.27;100.00;98234.19;5011378;28;20502;-77
2023/03/25 04:15:33;;;;;;;1.48;0.20;;;;;;;5.35;100.00;98233.28;5030109;28;20020;-77
2023/03/25 04:18:00;;;;;;;0.38;0.20;;;;;;;5.42;100.00;98218.94;5010339;28;20029;-76
2023/03/25 04:20:28;;;;;;;1.33;0.10;;;;;;;5.51;100.00;98232.25;5013616;28;20021;-77
2023/03/25 04:22:54;;;;;;;2.40;0.30;;;;;;;5.51;100.00;98229.56;5027964;28;20029;-77
2023/03/25 04:25:20;;;;;;;0.70;0.20;;;;;;;5.56;100.00;98224.50;5014446;28;20072;-77
2023/03/25 04:27:47;;;;;;;1.92;0.35;;;;;;;5.62;100.00;98221.06;5025759;28;20538;-76
2023/03/25 04:30:16;;;;;;;1.17;0.40;;;;;;;5.66;100.00;98233.91;5015776;28;20076;-77
2023/03/25 04:32:45;;;;;;;0.20;0.20;;;;;;;5.72;100.00;98237.72;5018110;28;20017;-76
2023/03/25 04:35:10;;;;;;;1.33;0.40;;;;;;;5.65;100.00;98223.34;5018520;28;20032;-77
2023/03/25 04:37:37;;;;;;;0.68;0.30;;;;;;;5.55;100.00;98187.94;5017794;28;20030;-76
2023/03/25 04:40:05;;;;;;;2.92;0.40;;;;;;;5.81;100.00;98217.78;5019467;28;20486;-76
2023/03/25 04:42:36;;;;;;;2.58;0.30;;;;;;;5.75;100.00;98207.81;5020101;28;20040;-76
2023/03/25 04:45:04;;;;;;;0.43;0.30;;;;;;;5.63;100.00;98186.00;5016501;28;20041;-76
2023/03/25 04:47:30;;;;;;;1.20;0.23;;;;;;;5.90;100.00;98211.31;5011405;28;20033;-77
2023/03/25 04:49:55;;;;;;;0.38;0.20;;;;;;;5.66;100.00;98166.00;5017800;28;20035;-77
2023/03/25 04:52:21;;;;;;;2.15;0.30;;;;;;;5.95;100.00;98199.19;5035675;28;20033;-76
2023/03/25 04:54:46;;;;;;;1.70;0.30;;;;;;;6.09;100.00;98184.91;5018904;28;20025;-77
2023/03/25 04:57:11;;;;;;;2.90;0.30;;;;;;;6.12;100.00;98192.56;5015524;28;20112;-77
2023/03/25 04:59:37;;;;;;;0.90;0.20;;;;;;;6.11;100.00;98194.44;5015936;28;20029;-77
2023/03/25 05:08:47;;;;;;;2.83;0.32;;;;;;;5.72;100.00;98111.56;5045440;28;20076;-79
2023/03/25 05:11:12;;;;;;;1.65;0.22;;;;;;;6.15;100.00;98181.44;5047364;28;20006;-80
2023/03/25 05:13:38;;;;;;;1.48;0.50;;;;;;;6.26;100.00;98207.81;5038921;28;20033;-78
2023/03/25 05:16:03;;;;;;;1.00;0.10;;;;;;;5.84;100.00;98142.28;5042005;28;20546;-77
2023/03/25 05:18:30;;;;;;;0.25;0.20;;;;;;;5.81;100.00;98131.88;5055900;28;20022;-79
2023/03/25 05:20:55;;;;;;;2.72;0.47;;;;;;;5.78;100.00;98124.22;5045756;28;20060;-79
2023/03/25 05:23:22;;;;;;;0.65;0.20;;;;;;;6.12;100.00;98179.16;5035133;28;20025;-78
2023/03/25 05:25:49;;;;;;;1.02;0.30;;;;;;;6.19;100.00;98169.31;5059536;28;20033;-78
2023/03/25 05:28:15;;;;;;;1.48;0.38;;;;;;;5.86;100.00;98112.53;5036436;28;20020;-79
2023/03/25 05:30:44;;;;;;;0.55;0.15;;;;;;;5.86;100.00;98113.34;5039569;28;20021;-78
2023/03/25 05:33:12;;;;;;;0.20;0.10;;;;;;;6.51;100.00;98210.94;5032693;28;20049;-78
2023/03/25 05:35:38;;;;;;;0.50;0.15;;;;;;;6.59;100.00;98204.63;5024803;28;20026;-76
2023/03/25 05:38:06;;;;;;;2.50;0.20;;;;;;;6.28;100.00;98149.34;5042410;28;20029;-80
2023/03/25 05:40:32;;;;;;;1.60;0.40;;;;;;;6.30;100.00;98154.53;5036412;28;20025;-77
2023/03/25 05:42:57;;;;;;;2.60;0.32;;;;;;;6.59;100.00;98201.94;5033084;28;20026;-76
2023/03/25 05:45:23;;;;;;;2.28;0.25;;;;;;;6.72;100.00;98217.34;5014099;28;20064;-76
2023/03/25 05:47:48;;;;;;;1.95;0.20;;;;;;;6.74;100.00;98202.69;5018236;28;20108;-77
2023/03/25 05:50:14;;;;;;;3.28;0.70;;;;;;;6.78;100.00;98211.19;5029459;28;20092;-77
2023/03/25 05:52:40;;;;;;;4.30;0.40;;;;;;;6.70;100.00;98197.88;5026741;28;20023;-78
2023/03/25 05:55:09;;;;;;;1.95;0.52;;;;;;;6.72;100.00;98207.44;5043923;28;20029;-77
2023/03/25 05:57:35;;;;;;;1.08;0.50;;;;;;;6.82;100.00;98227.78;5034488;28;20056;-79
2023/03/25 06:00:01;;;;;;;1.33;0.30;;;;;;;6.65;100.00;98206.53;5025019;28;20037;-77
2023/03/25 06:02:26;;;;;;;1.42;0.35;;;;;;;6.64;100.00;98182.53;5020159;28;20525;-77
2023/03/25 06:04:52;;;;;;;3.17;0.40;;;;;;;6.77;100.00;98202.31;5038964;28;20034;-76
2023/03/25 06:07:21;;;;;;;2.13;0.30;;;;;;;6.93;100.00;98221.88;5034706;28;20029;-77
2023/03/25 06:09:48;;;;;;;6.70;0.50;;;;;;;6.99;100.00;98232.66;5035345;28;20084;-79
2023/03/25 06:12:16;;;;;;;1.52;0.30;;;;;;;7.00;100.00;98226.28;5027785;28;20430;-77
2023/03/25 06:14:44;;;;;;;3.00;0.60;;;;;;;7.12;100.00;98239.19;5034407;28;20036;-77
2023/03/25 06:17:10;;;;;;;6.35;0.60;;;;;;;7.12;100.00;98217.66;5017344;28;20025;-85
2023/03/25 06:19:37;;;;;;;6.68;0.60;;;;;;;7.12;100.00;98205.06;5021398;28;20048;-81
2023/03/25 06:22:05;;;;;;;7.60;0.98;;;;;;;7.22;100.00;98218.16;5030186;28;20056;-81
2023/03/25 06:24:30;;;;;;;3.67;1.00;;;;;;;7.03;100.00;98179.34;5022171;28;20018;-79
2023/03/25 06:26:55;;;;;;;4.18;1.00;;;;;;;7.16;100.00;98195.56;5020998;28;20032;-84
2023/03/25 06:29:21;;;;;;;5.85;0.93;;;;;;;7.30;100.00;98214.50;5017087;28;20057;-77
2023/03/25 06:31:46;;;;;;;2.83;0.68;;;;;;;7.33;100.00;98211.41;5017098;28;20043;-78
2023/03/25 06:34:11;;;;;;;8.40;0.90;;;;;;;7.19;100.00;98199.72;5017409;28;20025;-77
2023/03/25 06:36:36;;;;;;;2.78;0.68;;;;;;;7.44;100.00;98249.38;5022970;28;20029;-78
2023/03/25 06:39:04;;;;;;;2.00;1.00;;;;;;;7.33;100.00;98230.25;5017527;28;20029;-78
2023/03/25 06:41:29;;;;;;;4.57;1.05;;;;;;;7.43;100.00;98241.50;5033759;28;20059;-77
2023/03/25 06:43:54;;;;;;;6.80;1.27;;;;;;;7.33;100.00;98231.06;5021373;28;20037;-78
2023/03/25 06:46:20;;;;;;;2.05;0.77;;;;;;;7.38;100.00;98217.03;5018487;28;20021;-80
2023/03/25 06:48:45;;;;;;;2.20;0.60;;;;;;;7.54;100.00;98232.84;5040469;28;20040;-80
2023/03/25 06:51:10;;;;;;;3.80;0.70;;;;;;;7.30;100.00;98209.09;5023511;28;20028;-80
2023/03/25 06:53:36;;;;;;;4.32;0.90;;;;;;;7.66;100.00;98246.59;5017077;28;20017;-79
2023/03/25 06:56:01;;;;;;;2.83;0.65;;;;;;;7.58;100.00;98217.16;5017657;28;20021;-79
2023/03/25 06:58:33;;;;;;;3.05;0.60;;;;;;;7.64;100.00;98214.47;5018711;28;20116;-78
2023/03/25 07:01:02;;;;;;;4.03;1.08;;;;;;;7.74;100.00;98242.91;5012501;28;20033;-78
2023/03/25 07:03:28;;;;;;;4.65;0.45;;;;;;;7.75;100.00;98231.94;5035004;28;20021;-79
2023/03/25 07:05:53;;;;;;;4.63;0.47;;;;;;;7.77;100.00;98210.22;5017024;28;20036;-78
2023/03/25 07:08:18;;;;;;;2.60;0.63;;;;;;;7.82;100.00;98200.50;5016892;28;20068;-79
2023/03/25 07:10:43;;;;;;;5.18;0.93;;;;;;;8.17;100.00;98226.53;5015059;28;20101;-79
2023/03/25 07:13:09;;;;;;;3.72;0.68;;;;;;;8.03;100.00;98199.53;5017365;28;20120;-79
2023/03/25 07:15:35;;;;;;;3.67;0.55;;;;;;;8.22;100.00;98226.75;5037376;28;20036;-79
2023/03/25 07:18:01;;;;;;;4.45;0.55;;;;;;;8.27;100.00;98211.63;5035201;28;20025;-81
2023/03/25 07:20:26;;;;;;;5.28;0.90;;;;;;;8.67;100.00;98216.31;5044302;28;20030;-79
2023/03/25 07:22:55;;;;;;;3.78;0.68;;;;;;;8.46;100.00;98198.44;5026033;28;20034;-82
2023/03/25 07:25:21;;;;;;;3.77;0.63;;;;;;;8.58;100.00;98229.16;5025834;28;20036;-79
2023/03/25 07:27:46;;;;;;;6.32;0.70;;;;;;;9.12;100.00;98227.34;5009066;28;20450;-80
2023/03/25 07:30:12;;;;;;;5.22;0.85;;;;;;;9.17;100.00;98205.97;5019759;28;20091;-79
2023/03/25 07:32:37;;;;;;;5.05;1.02;;;;;;;8.86;100.00;98241.66;5017291;28;20025;-78
2023/03/25 07:35:03;;;;;;;4.18;0.82;;;;;;;8.50;100.00;98229.34;5014296;28;20072;-79
2023/03/25 07:37:28;;;;;;;7.57;0.85;;;;;;;8.18;100.00;98223.63;5017152;28;20032;-79
2023/03/25 07:39:54;;;;;;;5.32;0.75;;;;;;;8.25;100.00;98223.66;5017696;28;20032;-79
2023/03/25 07:42:19;;;;;;;3.92;0.60;;;;;;;8.29;100.00;98219.53;5028361;28;20029;-81
2023/03/25 07:44:44;;;;;;;2.88;0.70;;;;;;;8.35;100.00;98214.13;5025335;28;20026;-80
2023/03/25 07:47:09;;;;;;;6.15;0.82;;;;;;;8.38;100.00;98215.59;5034130;28;20427;-81
2023/03/25 07:49:35;;;;;;;3.00;0.50;;;;;;;8.52;100.00;98220.03;5019024;28;20083;-81
2023/03/25 07:52:00;;;;;;;5.97;1.10;;;;;;;8.58;100.00;98223.75;5022869;28;20056;-80
2023/03/25 07:54:25;;;;;;;7.43;0.85;;;;;;;8.70;100.00;98211.34;5023278;28;20048;-81
2023/03/25 07:56:51;;;;;;;6.60;1.55;;;;;;;9.00;100.00;98192.06;5016340;28;20014;-79
2023/03/25 07:59:17;;;;;;;3.63;0.50;;;;;;;9.41;100.00;98221.50;5026376;28;20106;-80
2023/03/25 08:01:42;;;;;;;4.63;1.65;;;;;;;9.54;100.00;98209.84;5013270;28;20032;-79
2023/03/25 08:04:08;;;;;;;10.25;3.33;;;;;;;9.44;100.00;98196.78;5035171;28;20498;-81
2023/03/25 08:06:33;;;;;;;11.90;3.03;;;;;;;9.53;100.00;98216.25;5018570;28;20056;-80
2023/03/25 08:08:58;;;;;;;6.93;1.63;;;;;;;9.71;100.00;98215.59;5016565;28;20030;-79
2023/03/25 08:11:23;;;;;;;3.38;0.90;;;;;;;10.14;100.00;98206.09;5021604;28;20033;-77
2023/03/25 08:13:49;;;;;;;6.80;0.68;;;;;;;11.64;100.00;98162.88;5017232;28;20025;-79
2023/03/25 08:16:14;;;;;;;2.17;0.43;;;;;;;11.85;100.00;98183.28;5013323;28;20032;-78
2023/03/25 08:18:43;;;;;;;3.65;0.60;;;;;;;11.45;100.00;98186.44;5034217;28;20085;-81
2023/03/25 08:21:12;;;;;;;3.55;0.63;;;;;;;10.96;100.00;98182.72;5019981;28;20029;-78
2023/03/25 08:23:37;;;;;;;3.03;0.68;;;;;;;10.16;100.00;98183.19;5009010;28;20029;-77
2023/03/25 08:26:04;;;;;;;2.45;0.30;;;;;;;10.03;100.00;98210.28;5015316;28;20033;-74
2023/03/25 08:28:30;;;;;;;1.70;0.40;;;;;;;9.72;100.00;98165.97;5005924;28;20022;-77
2023/03/25 08:30:56;;;;;;;4.60;0.50;;;;;;;10.58;100.00;98170.09;5013920;28;20029;-78
2023/03/25 08:33:26;;;;;;;1.90;0.32;;;;;;;11.53;100.00;98188.84;5014399;28;20076;-77
2023/03/25 08:35:51;;;;;;;2.50;0.40;;;;;;;11.41;100.00;98177.91;5035716;28;20504;-81
2023/03/25 08:38:17;;;;;;;3.00;0.45;;;;;;;10.98;100.00;98196.84;5034958;28;20124;-79
2023/03/25 08:40:43;;;;;;;2.40;0.32;;;;;;;10.35;100.00;98180.63;5030040;28;20021;-77
2023/03/25 08:43:09;;;;;;;3.78;0.40;;;;;;;10.36;100.00;98209.34;5038069;28;20033;-76
2023/03/25 08:45:35;;;;;;;1.33;0.40;;;;;;;10.26;100.00;98193.56;5025245;28;20021;-76
2023/03/25 08:48:01;;;;;;;6.60;0.57;;;;;;;10.46;100.00;98183.50;5016634;28;20028;-77
2023/03/25 08:50:27;;;;;;;1.38;0.30;;;;;;;10.64;100.00;98190.03;5013082;28;20121;-76
2023/03/25 08:52:56;;;;;;;3.22;0.50;;;;;;;10.42;100.00;98166.03;5026098;28;20079;-75
2023/03/25 08:55:22;;;;;;;1.23;0.32;;;;;;;10.67;100.00;98171.47;5014799;28;20227;-75
2023/03/25 08:57:47;;;;;;;4.82;1.25;;;;;;;10.38;100.00;98145.91;5015771;28;20132;-76
2023/03/25 09:00:13;;;;;;;5.15;0.95;;;;;;;10.18;100.00;98173.00;5013191;28;20439;-75
2023/03/25 09:02:41;;;;;;;2.83;0.70;;;;;;;10.05;100.00;98157.69;5013892;28;20108;-78
2023/03/25 09:05:10;;;;;;;4.95;1.05;;;;;;;9.93;100.00;98148.63;5015724;28;20037;-78
2023/03/25 09:07:37;;;;;;;6.25;1.10;;;;;;;9.83;100.00;98161.75;5011068;28;20033;-79
2023/03/25 09:10:04;;;;;;;1.63;0.47;;;;;;;9.49;100.00;98157.53;5036259;28;20025;-75
2023/03/25 09:12:29;;;;;;;1.52;0.47;;;;;;;9.11;100.00;98180.63;5012585;28;20080;-79
2023/03/25 09:14:55;;;;;;;4.75;0.60;;;;;;;8.64;100.00;98181.66;5015910;28;20021;-79
2023/03/25 09:17:20;;;;;;;1.23;0.35;;;;;;;8.46;100.00;98217.31;5022437;28;20017;-79
2023/03/25 09:19:46;;;;;;;3.40;0.50;;;;;;;8.15;100.00;98223.19;5023839;28;20033;-76
2023/03/25 09:22:12;;;;;;;3.83;0.60;;;;;;;8.09;100.00;98206.81;5033512;28;20026;-76
2023/03/25 09:24:38;;;;;;;0.88;0.25;;;;;;;8.55;100.00;98225.00;5013222;28;20079;-76
2023/03/25 09:27:03;;;;;;;1.52;0.40;;;;;;;8.99;100.00;98207.41;5015759;28;20026;-77
2023/03/25 09:29:28;;;;;;;2.53;0.30;;;;;;;9.31;100.00;98202.19;5024423;28;20025;-77
2023/03/25 09:31:57;;;;;;;2.13;0.40;;;;;;;9.59;100.00;98222.72;5019409;28;20414;-87
2023/03/25 09:34:22;;;;;;;1.88;0.32;;;;;;;9.66;100.00;98134.38;5021050;28;20485;-78
2023/03/25 09:36:47;;;;;;;1.65;0.57;;;;;;;10.60;100.00;98200.44;5026250;28;20032;-79
2023/03/25 09:39:13;;;;;;;1.48;0.88;;;;;;;11.45;100.00;98170.19;5027108;28;20053;-77
2023/03/25 09:41:53;;;;;;;1.13;0.20;;;;;;;12.55;100.00;98206.38;5022928;28;20123;-77
2023/03/25 09:44:27;;;;;;;0.47;0.20;;;;;;;12.19;100.00;98216.25;5010112;28;20022;-76
2023/03/25 09:46:55;;;;;;;1.88;0.40;;;;;;;10.74;100.00;98207.44;5018434;28;20061;-76
2023/03/25 09:49:31;;;;;;;1.55;0.20;;;;;;;10.74;100.00;98212.84;5042579;28;20395;-77
2023/03/25 09:51:58;;;;;;;0.55;0.20;;;;;;;10.88;100.00;98212.75;5036876;28;20025;-77
2023/03/25 09:54:30;;;;;;;1.98;0.28;;;;;;;11.46;100.00;98215.16;5036327;28;20025;-78
2023/03/25 09:57:05;;;;;;;1.13;0.10;;;;;;;11.71;100.00;98222.41;5036945;28;20065;-80
2023/03/25 09:59:48;;;;;;;0.93;0.10;;;;;;;10.86;100.00;98214.84;5018274;28;20175;-79
2023/03/25 10:02:25;;;;;;;0.90;0.08;;;;;;;10.65;100.00;98224.97;5017809;28;20022;-78
2023/03/25 10:05:14;;;;;;;0.30;0.10;;;;;;;9.99;100.00;98219.88;5016898;28;20025;-78
2023/03/25 10:07:55;;;;;;;0.38;0.15;;;;;;;9.47;100.00;98237.91;5017835;28;20030;-79
2023/03/25 10:10:45;;;;;;;0.55;0.10;;;;;;;9.49;100.00;98246.63;5019508;28;20044;-80
2023/03/25 10:13:34;;;;;;;0.85;0.13;;;;;;;9.29;100.00;98239.34;5029030;28;20022;-78
2023/03/25 10:16:11;;;;;;;0.32;0.10;;;;;;;8.77;100.00;98265.28;4998969;28;20040;-77
2023/03/25 10:19:04;;;;;;;0.57;0.10;;;;;;;8.62;100.00;98268.19;5029025;28;20530;-78
2023/03/25 10:21:48;;;;;;;0.10;0.05;;;;;;;10.19;100.00;98246.81;5018069;28;20029;-79
2023/03/25 10:24:31;;;;;;;0.60;0.00;;;;;;;12.28;100.00;98237.38;5014241;28;20032;-77
2023/03/25 10:27:02;;;;;;;0.47;0.10;;;;;;;13.52;100.00;98206.09;5034859;28;20033;-77
2023/03/25 10:30:02;;;;;;;1.48;0.30;;;;;;;12.16;100.00;98216.72;5036505;28;20032;-76
2023/03/25 10:32:50;;;;;;;2.88;0.38;;;;;;;11.14;100.00;98227.97;5017245;28;20037;-76
2023/03/25 10:35:20;;;;;;;0.68;0.30;;;;;;;11.09;100.00;98227.78;5017457;28;20041;-77
2023/03/25 10:37:50;;;;;;;0.90;0.10;;;;;;;11.03;100.00;98237.63;5035963;28;20036;-77
2023/03/25 10:40:24;;;;;;;2.25;0.20;;;;;;;10.42;100.00;98222.00;5027509;28;20031;-77
2023/03/25 10:43:31;;;;;;;0.85;0.20;;;;;;;10.52;100.00;98231.28;5028991;28;20036;-76
2023/03/25 10:46:06;;;;;;;0.10;0.00;;;;;;;11.12;100.00;98233.59;5033822;28;20033;-77
2023/03/25 10:48:32;;;;;;;0.30;0.00;;;;;;;11.83;100.00;98226.03;5016403;28;20404;-76
2023/03/25 10:51:23;;;;;;;0.50;0.17;;;;;;;13.97;100.00;98219.03;5033595;28;20025;-74
2023/03/25 10:53:51;;;;;;;0.40;0.10;;;;;;;14.42;100.00;98210.16;5010105;28;20029;-75
2023/03/25 10:56:31;;;;;;;1.53;0.10;;;;;;;14.41;100.00;98203.88;5017882;28;20026;-75
2023/03/25 10:59:00;;;;;;;0.52;0.15;;;;;;;15.41;100.00;98198.00;5018077;28;20367;-75
2023/03/25 11:01:39;;;;;;;2.03;0.10;;;;;;;13.79;100.00;98192.81;5015018;28;20017;-78
2023/03/25 11:04:07;;;;;;;1.07;0.10;;;;;;;16.09;100.00;98193.22;5023832;28;20025;-85
2023/03/25 11:06:38;;;;;;;0.95;0.20;;;;;;;16.68;100.00;98154.28;5043779;28;20283;-81
2023/03/25 11:09:07;;;;;;;1.88;0.10;;;;;;;15.61;100.00;98208.34;5019231;28;20040;-79
2023/03/25 11:11:34;;;;;;;1.95;0.50;;;;;;;14.87;100.00;98190.31;5018542;28;20048;-77
2023/03/25 11:14:01;;;;;;;1.13;0.22;;;;;;;16.23;100.00;98190.94;5015142;28;20087;-77
2023/03/25 11:16:31;;;;;;;1.10;0.30;;;;;;;17.14;100.00;98168.38;5030932;28;20075;-78
2023/03/25 11:19:00;;;;;;;0.80;0.10;;;;;;;15.71;100.00;98179.34;5023200;28;20103;-77
2023/03/25 11:21:29;;;;;;;0.60;0.20;;;;;;;15.83;100.00;98198.34;5033854;28;20024;-76
2023/03/25 11:23:54;;;;;;;1.58;0.20;;;;;;;16.50;100.00;98171.84;5012914;28;20480;-77
2023/03/25 11:26:22;;;;;;;2.38;0.25;;;;;;;19.19;79.24;98180.97;5033050;28;20040;-76
2023/03/25 11:28:50;;;;;;;2.20;0.38;;;;;;;17.54;84.02;98178.75;5017410;28;20391;-77
2023/03/25 11:31:22;;;;;;;1.53;0.37;;;;;;;17.25;87.22;98165.44;5013664;28;20032;-78
2023/03/25 11:34:16;;;;;;;1.60;0.10;;;;;;;19.65;73.74;98167.22;5013352;28;20700;-78
2023/03/25 11:37:03;;;;;;;1.42;0.40;;;;;;;20.14;65.92;98161.81;5008325;28;20052;-77
2023/03/25 11:39:33;;;;;;;2.10;0.43;;;;;;;17.37;69.51;98151.59;5015553;28;20036;-77
2023/03/25 11:42:13;;;;;;;0.60;0.20;;;;;;;17.36;77.03;98160.03;5018217;28;20048;-77
2023/03/25 11:44:39;;;;;;;1.73;0.25;;;;;;;21.08;63.31;98133.50;5013977;28;20025;-77
2023/03/25 11:47:08;;;;;;;1.90;0.40;;;;;;;22.26;59.53;98143.28;5013923;28;20032;-78
2023/03/25 11:49:37;;;;;;;3.25;0.40;;;;;;;21.24;56.15;98148.75;5032749;28;20483;-77
2023/03/25 11:52:07;;;;;;;2.10;0.50;;;;;;;18.54;57.22;98140.31;5021386;28;20491;-76
2023/03/25 11:54:35;;;;;;;1.77;0.43;;;;;;;17.60;61.27;98117.50;5029591;28;20025;-77